Time;durP1;ratioP1;P1;durP2;ratioP2;P2;SDS_P1;SDS_P2;PMS_P1;PMS_P2;Temp;Humidity;BMP_temperature;BMP_pressure;BME280_temperature;BME280_humidity;BME280_pressure;Samples;Min_cycle;Max_cycle;Signal;HPM_P1;HPM_P2
2023/01/18 00:00:39;;;;;;;3.92;1.08;;;17.20;61.80;;;;;;5097256;28;20082;-68
2023/01/18 00:03:13;;;;;;;7.80;1.13;;;17.10;62.40;;;;;;5103423;28;20492;-68
2023/01/18 00:05:40;;;;;;;11.90;1.60;;;17.20;62.50;;;;;;5098369;28;20114;-65
2023/01/18 00:08:11;;;;;;;37.90;2.00;;;17.10;63.30;;;;;;5104068;28;20071;-67
2023/01/18 00:10:38;;;;;;;6.90;1.15;;;16.80;63.70;;;;;;5104089;28;20112;-66
2023/01/18 00:13:05;;;;;;;154.57;12.20;;;16.70;64.90;;;;;;5099710;28;20059;-66
2023/01/18 00:15:32;;;;;;;5.35;1.10;;;16.70;65.60;;;;;;5097005;28;20111;-67
2023/01/18 00:17:59;;;;;;;10.02;1.20;;;16.70;65.60;;;;;;5096387;28;20082;-66
2023/01/18 00:20:27;;;;;;;4.88;0.70;;;16.80;65.70;;;;;;5097186;28;20079;-64
2023/01/18 00:22:53;;;;;;;10.23;0.80;;;16.80;65.50;;;;;;5096475;28;20525;-65
2023/01/18 00:25:22;;;;;;;4.60;1.20;;;16.60;66.10;;;;;;5099128;28;20071;-65
2023/01/18 00:27:51;;;;;;;5.53;0.70;;;16.60;66.60;;;;;;5099310;28;20069;-67
2023/01/18 00:30:21;;;;;;;3.20;1.00;;;16.50;67.30;;;;;;5100847;28;20079;-64
2023/01/18 00:32:51;;;;;;;3.28;1.10;;;16.40;67.60;;;;;;5098257;28;20154;-75
2023/01/18 00:35:21;;;;;;;5.65;1.23;;;16.30;67.90;;;;;;5095172;28;20113;-64
2023/01/18 00:37:48;;;;;;;3.53;1.10;;;16.10;67.70;;;;;;5104038;28;20152;-64
2023/01/18 00:40:15;;;;;;;8.43;1.00;;;16.10;68.20;;;;;;5097095;28;20428;-63
2023/01/18 00:45:26;;;;;;;7.93;1.25;;;15.90;68.60;;;;;;5098545;28;20074;-71
2023/01/18 00:47:53;;;;;;;5.35;1.10;;;15.90;69.00;;;;;;5100424;28;20083;-65
2023/01/18 00:50:21;;;;;;;6.95;1.73;;;15.80;69.00;;;;;;5102485;28;20206;-68
2023/01/18 00:52:48;;;;;;;3.63;1.27;;;15.80;69.40;;;;;;5100182;28;20093;-65
2023/01/18 00:55:15;;;;;;;7.15;1.30;;;15.70;69.60;;;;;;5096923;28;20536;-67
2023/01/18 00:57:42;;;;;;;7.70;1.40;;;15.70;70.10;;;;;;5096854;28;20117;-64
2023/01/18 01:00:14;;;;;;;12.35;1.38;;;15.50;70.30;;;;;;5098017;28;20062;-66
2023/01/18 01:02:41;;;;;;;10.23;1.33;;;15.50;95.60;;;;;;5100398;28;20156;-66
2023/01/18 01:08:07;;;;;;;9.90;1.45;;;15.30;89.80;;;;;;5091972;28;20125;-63
2023/01/18 01:10:34;;;;;;;5.82;1.10;;;15.00;90.30;;;;;;5093902;28;20130;-65
2023/01/18 01:26:44;;;;;;;6.55;1.58;;;15.10;68.30;;;;;;5090704;28;20158;-65
2023/01/18 01:29:10;;;;;;;7.82;1.77;;;15.10;68.50;;;;;;5090642;28;20159;-63
2023/01/18 01:31:37;;;;;;;;;;;15.00;68.70;;;;;;5097058;28;20097;-66
2023/01/18 01:34:04;;;;;;;4.43;1.30;;;15.00;69.10;;;;;;5097781;28;19963;-66
2023/01/18 01:36:30;;;;;;;5.57;1.92;;;15.00;69.40;;;;;;5098362;28;20086;-67
2023/01/18 01:38:57;;;;;;;5.00;1.55;;;14.90;69.70;;;;;;5099195;28;20065;-64
2023/01/18 01:41:32;;;;;;;12.80;4.25;;;15.00;69.70;;;;;;5103095;28;20095;-64
2023/01/18 01:44:03;;;;;;;6.13;1.48;;;14.80;84.30;;;;;;5097409;28;20149;-66
2023/01/18 01:46:32;;;;;;;6.82;1.70;;;15.20;90.80;;;;;;5094119;28;20127;-64
2023/01/18 01:49:27;;;;;;;7.35;1.40;;;15.00;90.80;;;;;;5092950;28;20078;-65
2023/01/18 01:52:04;;;;;;;8.05;1.60;;;14.80;71.20;;;;;;5093668;28;20102;-65
2023/01/18 01:54:33;;;;;;;6.55;1.67;;;14.80;87.20;;;;;;5087655;28;20066;-65
2023/01/18 01:57:11;;;;;;;5.80;1.40;;;14.80;91.70;;;;;;5088589;28;20121;-66
2023/01/18 01:59:44;;;;;;;5.90;1.63;;;14.80;71.40;;;;;;5098618;28;20081;-66
2023/01/18 02:02:11;;;;;;;4.05;1.48;;;14.80;92.80;;;;;;5091968;28;20070;-66
2023/01/18 02:04:43;;;;;;;7.63;1.27;;;14.60;91.70;;;;;;5093976;28;20077;-64
2023/01/18 02:07:10;;;;;;;10.77;2.45;;;14.80;91.70;;;;;;5094736;28;20063;-65
2023/01/18 02:09:37;;;;;;;9.20;1.90;;;14.50;91.40;;;;;;5097471;28;20073;-65
2023/01/18 02:12:04;;;;;;;6.25;2.08;;;14.30;91.90;;;;;;5092329;28;20463;-64
2023/01/18 02:14:31;;;;;;;10.23;2.05;;;14.40;73.10;;;;;;5091442;28;20487;-64
2023/01/18 02:17:27;;;;;;;11.57;2.35;;;14.50;72.80;;;;;;5100377;28;20059;-67
2023/01/18 02:20:22;;;;;;;5.63;1.98;;;14.50;95.80;;;;;;5098709;28;20041;-65
2023/01/18 02:23:13;;;;;;;6.88;2.13;;;14.50;73.90;;;;;;5091512;28;20054;-68
2023/01/18 02:26:01;;;;;;;11.23;3.63;;;13.90;98.40;;;;;;5093983;28;20081;-66
2023/01/18 02:28:38;;;;;;;12.65;3.75;;;14.30;77.00;;;;;;5099557;28;20145;-67
2023/01/18 02:31:17;;;;;;;10.35;4.55;;;14.20;75.40;;;;;;5097282;28;20437;-65
2023/01/18 02:34:01;;;;;;;8.95;2.03;;;14.20;75.20;;;;;;5095089;28;20170;-64
2023/01/18 02:36:35;;;;;;;9.48;1.80;;;14.20;75.50;;;;;;5094317;28;20103;-66
2023/01/18 02:39:09;;;;;;;15.38;2.22;;;14.20;75.50;;;;;;5095677;28;20071;-64
2023/01/18 02:47:27;;;;;;;8.57;1.75;;;14.10;75.50;;;;;;5098238;28;20137;-65
2023/01/18 02:49:56;;;;;;;9.25;2.15;;;14.10;75.10;;;;;;5098232;28;20076;-65
2023/01/18 02:52:40;;;;;;;4.88;1.67;;;14.10;74.90;;;;;;5095771;28;20129;-67
2023/01/18 02:55:28;;;;;;;10.70;2.00;;;14.30;95.50;;;;;;5097184;28;20483;-67
2023/01/18 02:57:56;;;;;;;;;;;14.10;74.60;;;;;;5099407;28;20054;-65
2023/01/18 03:00:24;;;;;;;5.80;1.48;;;13.90;79.80;;;;;;5099538;28;20015;-68
2023/01/18 03:02:51;;;;;;;9.43;1.42;;;14.90;84.60;;;;;;5090512;28;20528;-68
2023/01/18 03:05:19;;;;;;;3.42;1.55;;;15.00;99.90;;;;;;5094553;28;20075;-67
2023/01/18 03:07:54;;;;;;;8.48;1.70;;;15.10;91.00;;;;;;5091698;28;20024;-66
2023/01/18 03:10:22;;;;;;;7.10;1.70;;;15.00;71.00;;;;;;5088808;28;20089;-68
2023/01/18 03:12:49;;;;;;;9.00;1.70;;;15.10;71.10;;;;;;5089769;28;20075;-67
2023/01/18 03:15:35;;;;;;;10.55;2.00;;;15.10;71.00;;;;;;5088645;28;20157;-68
2023/01/18 03:18:15;;;;;;;6.00;2.30;;;15.30;71.00;;;;;;5088298;28;20071;-68
2023/01/18 03:20:51;;;;;;;16.30;2.88;;;15.40;70.50;;;;;;5093054;28;20074;-67
2023/01/18 03:23:39;;;;;;;6.00;2.95;;;15.20;70.40;;;;;;5089509;28;20416;-67
2023/01/18 03:26:14;;;;;;;4.38;2.45;;;15.10;70.70;;;;;;5088352;28;20444;-66
2023/01/18 03:35:15;;;;;;;19.70;3.50;;;14.90;71.30;;;;;;5096623;28;20128;-67
2023/01/18 03:37:45;;;;;;;10.45;3.13;;;14.80;77.50;;;;;;5090629;28;20821;-67
2023/01/18 03:40:18;;;;;;;20.42;3.10;;;14.70;71.70;;;;;;5091921;28;20520;-68
2023/01/18 03:42:52;;;;;;;12.05;2.38;;;14.80;71.80;;;;;;5093807;28;20149;-68
2023/01/18 03:45:44;;;;;;;16.30;3.00;;;14.80;71.70;;;;;;5091968;28;20082;-67
2023/01/18 03:48:11;;;;;;;20.98;3.35;;;14.80;72.50;;;;;;5094597;28;20089;-68
2023/01/18 03:50:49;;;;;;;13.73;2.40;;;15.00;72.00;;;;;;5092920;28;20083;-67
2023/01/18 03:53:38;;;;;;;18.67;2.58;;;14.80;71.50;;;;;;5092581;28;20094;-67
2023/01/18 03:56:12;;;;;;;15.07;2.70;;;14.70;71.70;;;;;;5095498;28;20137;-66
2023/01/18 03:58:41;;;;;;;12.60;2.63;;;14.60;72.20;;;;;;5100006;28;20066;-66
2023/01/18 04:01:07;;;;;;;28.17;3.00;;;14.10;93.10;;;;;;5098400;28;20054;-67
2023/01/18 04:03:34;;;;;;;15.40;3.83;;;14.50;71.70;;;;;;5092859;28;20163;-66
2023/01/18 04:06:04;;;;;;;19.63;4.78;;;14.50;71.30;;;;;;5099179;27;20094;-67
2023/01/18 04:08:31;;;;;;;18.98;5.20;;;14.40;71.80;;;;;;5102095;28;20050;-66
2023/01/18 04:10:57;;;;;;;;;;;14.40;72.00;;;;;;5099274;28;20087;-66
2023/01/18 04:13:23;;;;;;;21.80;5.20;;;14.40;71.50;;;;;;5094654;28;19959;-67
2023/01/18 04:15:49;;;;;;;;;;;14.40;71.90;;;;;;5092603;28;20141;-66
2023/01/18 04:18:16;;;;;;;17.40;5.63;;;14.30;71.60;;;;;;5094488;28;19954;-66
2023/01/18 04:20:42;;;;;;;;;;;14.30;71.80;;;;;;5098546;28;20072;-66
2023/01/18 04:23:08;;;;;;;16.13;5.28;;;14.30;71.30;;;;;;5098850;28;20001;-67
2023/01/18 04:25:37;;;;;;;15.20;4.55;;;14.20;71.40;;;;;;5100717;28;20075;-68
2023/01/18 04:28:04;;;;;;;17.83;4.43;;;14.10;71.50;;;;;;5098331;28;20536;-67
2023/01/18 04:30:30;;;;;;;13.15;5.28;;;14.10;71.70;;;;;;5096418;28;20070;-65
2023/01/18 04:32:56;;;;;;;;;;;14.00;71.70;;;;;;5103652;28;20562;-68
2023/01/18 04:35:22;;;;;;;26.13;5.53;;;13.90;71.90;;;;;;5099277;28;20048;-68
2023/01/18 04:37:52;;;;;;;;;;;13.90;72.10;;;;;;5099013;28;20074;-67
2023/01/18 04:40:18;;;;;;;26.52;9.10;;;13.90;72.60;;;;;;5096920;28;19959;-66
2023/01/18 04:42:52;;;;;;;25.38;11.40;;;13.90;92.40;;;;;;5097287;28;20116;-67
2023/01/18 04:45:18;;;;;;;91.03;43.67;;;13.50;88.00;;;;;;5091866;28;20077;-68
2023/01/18 04:47:45;;;;;;;46.60;17.90;;;13.80;73.20;;;;;;5101971;28;20113;-67
2023/01/18 04:50:12;;;;;;;32.38;15.15;;;13.70;72.90;;;;;;5096570;28;20071;-67
2023/01/18 04:52:38;;;;;;;35.78;15.25;;;13.70;73.10;;;;;;5098818;28;20099;-68
2023/01/18 04:55:05;;;;;;;;;;;13.80;73.00;;;;;;5098938;28;20073;-67
2023/01/18 04:57:31;;;;;;;52.85;30.20;;;13.70;73.00;;;;;;5097657;28;19963;-69
2023/01/18 04:59:59;;;;;;;;;;;13.60;73.50;;;;;;5100365;28;20071;-67
2023/01/18 05:02:25;;;;;;;50.35;26.83;;;13.80;94.60;;;;;;5094335;28;19956;-67
2023/01/18 05:04:51;;;;;;;38.10;17.75;;;13.40;74.10;;;;;;5098875;28;20046;-69
2023/01/18 05:07:17;;;;;;;;;;;13.40;74.00;;;;;;5100549;28;20062;-67
2023/01/18 05:09:44;;;;;;;24.77;8.25;;;13.30;73.80;;;;;;5096824;28;19969;-67
2023/01/18 05:12:10;;;;;;;;;;;13.30;73.40;;;;;;5098949;28;20551;-68
2023/01/18 05:14:37;;;;;;;22.53;8.63;;;13.30;73.70;;;;;;5103508;28;19979;-67
2023/01/18 05:17:06;;;;;;;21.13;9.25;;;13.30;73.90;;;;;;5102721;28;20437;-67
2023/01/18 05:19:33;;;;;;;30.90;11.18;;;13.30;73.60;;;;;;5097697;28;20071;-64
2023/01/18 05:21:59;;;;;;;18.75;8.80;;;13.20;73.80;;;;;;5093024;28;20059;-65
2023/01/18 05:24:26;;;;;;;;;;;13.30;73.70;;;;;;5095306;28;20067;-68
2023/01/18 05:26:52;;;;;;;18.15;7.10;;;13.20;73.20;;;;;;5093578;28;19986;-67
2023/01/18 05:29:18;;;;;;;;;;;13.20;73.50;;;;;;5098704;28;20513;-66
2023/01/18 05:31:45;;;;;;;31.15;13.95;;;13.20;73.60;;;;;;5092151;28;19956;-70
2023/01/18 05:34:11;;;;;;;22.90;8.40;;;13.20;73.90;;;;;;5091200;28;20518;-67
2023/01/18 05:36:38;;;;;;;27.05;10.70;;;13.10;74.10;;;;;;5095955;28;20087;-67
2023/01/18 05:39:04;;;;;;;21.63;9.45;;;13.00;74.70;;;;;;5094491;28;20085;-69
2023/01/18 05:41:31;;;;;;;28.13;9.55;;;13.00;74.80;;;;;;5095982;28;20121;-66
2023/01/18 05:43:57;;;;;;;23.58;9.00;;;13.00;74.40;;;;;;5098268;28;20481;-69
2023/01/18 05:46:23;;;;;;;;;;;13.00;75.00;;;;;;5097492;28;20161;-68
2023/01/18 05:48:50;;;;;;;32.20;15.73;;;12.90;74.70;;;;;;5098308;28;21940;-67
2023/01/18 05:51:16;;;;;;;16.02;5.32;;;12.90;74.40;;;;;;5098002;28;20106;-67
2023/01/18 05:53:42;;;;;;;;;;;12.90;74.30;;;;;;5098400;28;20082;-67
2023/01/18 05:56:08;;;;;;;20.20;4.72;;;12.90;74.20;;;;;;5095958;28;20034;-70
2023/01/18 05:58:34;;;;;;;;;;;12.80;74.10;;;;;;5100675;28;20430;-66
2023/01/18 06:01:01;;;;;;;16.38;6.63;;;12.80;74.40;;;;;;5096976;28;20415;-65
2023/01/18 06:03:27;;;;;;;;;;;12.70;74.30;;;;;;5092297;28;20099;-68
2023/01/18 06:05:53;;;;;;;11.50;3.85;;;12.70;74.30;;;;;;5095825;28;19962;-68
2023/01/18 06:08:19;;;;;;;;;;;12.70;74.10;;;;;;5094814;28;20074;-66
2023/01/18 06:10:54;;;;;;;10.48;5.32;;;12.70;74.20;;;;;;5093440;28;20424;-65
2023/01/18 06:13:21;;;;;;;19.30;8.13;;;12.70;73.80;;;;;;5090331;28;20082;-66
2023/01/18 06:15:48;;;;;;;14.88;7.03;;;12.70;73.50;;;;;;5088901;28;20556;-66
2023/01/18 06:18:14;;;;;;;15.13;5.47;;;12.70;73.60;;;;;;5096928;28;20083;-66
2023/01/18 06:20:40;;;;;;;;;;;12.70;73.50;;;;;;5098308;28;20543;-67
2023/01/18 06:23:07;;;;;;;10.25;3.10;;;12.70;73.60;;;;;;5097100;28;19994;-65
2023/01/18 06:25:33;;;;;;;;;;;12.60;74.30;;;;;;5097286;28;20086;-65
2023/01/18 06:27:59;;;;;;;12.00;3.25;;;12.60;73.80;;;;;;5096216;28;19955;-66
2023/01/18 06:30:26;;;;;;;7.32;2.92;;;12.50;74.70;;;;;;5101037;28;20100;-67
2023/01/18 06:32:52;;;;;;;9.43;2.88;;;12.50;74.80;;;;;;5102621;28;20768;-66
2023/01/18 06:35:19;;;;;;;;;;;12.50;75.20;;;;;;5105042;28;20074;-66
2023/01/18 06:37:46;;;;;;;7.78;3.13;;;12.40;75.00;;;;;;5097737;28;20435;-67
2023/01/18 06:40:13;;;;;;;8.48;3.70;;;12.40;75.20;;;;;;5099627;28;20079;-70
2023/01/18 06:42:40;;;;;;;11.18;4.68;;;12.30;75.60;;;;;;5101206;28;20421;-67
2023/01/18 06:45:07;;;;;;;12.32;6.00;;;12.30;75.90;;;;;;5098057;28;20083;-65
2023/01/18 06:47:34;;;;;;;12.75;5.72;;;12.30;76.30;;;;;;5096213;28;20178;-65
2023/01/18 06:50:00;;;;;;;;;;;12.10;76.20;;;;;;5103940;28;20083;-68
2023/01/18 06:52:26;;;;;;;12.55;6.32;;;12.10;76.50;;;;;;5100389;28;19959;-67
2023/01/18 06:54:52;;;;;;;;;;;12.10;76.70;;;;;;5100902;28;20524;-67
2023/01/18 06:57:18;;;;;;;15.82;5.70;;;12.00;77.20;;;;;;5099356;28;20343;-68
2023/01/18 06:59:44;;;;;;;;;;;12.00;77.70;;;;;;5103473;28;20103;-66
2023/01/18 07:02:15;;;;;;;8.60;2.85;;;12.50;93.80;;;;;;5099024;28;20009;-68
2023/01/18 07:04:44;;;;;;;7.82;3.38;;;11.90;77.00;;;;;;5097532;28;20083;-67
2023/01/18 07:07:11;;;;;;;10.13;2.35;;;11.80;77.00;;;;;;5098804;28;20066;-69
2023/01/18 07:09:38;;;;;;;8.20;2.35;;;11.80;77.10;;;;;;5093085;28;20064;-67
2023/01/18 07:12:04;;;;;;;10.48;2.92;;;11.80;77.60;;;;;;5095153;28;20083;-66
2023/01/18 07:14:31;;;;;;;8.27;3.60;;;11.80;77.50;;;;;;5099389;28;20111;-66
2023/01/18 07:16:57;;;;;;;;;;;11.80;77.40;;;;;;5091537;28;20080;-65
2023/01/18 07:19:23;;;;;;;6.90;2.83;;;11.80;77.70;;;;;;5096742;28;19959;-65
2023/01/18 07:21:50;;;;;;;;;;;11.80;77.70;;;;;;5100557;28;20565;-68
2023/01/18 07:24:17;;;;;;;9.93;2.10;;;11.80;77.90;;;;;;5101259;28;20340;-66
2023/01/18 07:26:43;;;;;;;13.52;3.35;;;11.70;77.90;;;;;;5098609;28;20079;-68
2023/01/18 07:29:10;;;;;;;10.68;2.88;;;11.70;77.70;;;;;;5102680;28;20124;-66
2023/01/18 07:31:37;;;;;;;;;;;11.80;78.00;;;;;;5101819;28;20086;-67
2023/01/18 07:34:03;;;;;;;10.60;3.80;;;11.80;77.90;;;;;;5098592;28;19955;-65
2023/01/18 07:36:30;;;;;;;8.93;2.65;;;11.80;77.90;;;;;;5097289;28;20114;-67
2023/01/18 07:38:56;;;;;;;;;;;11.80;77.70;;;;;;5101320;28;20213;-66
2023/01/18 07:41:23;;;;;;;5.47;1.95;;;11.90;77.60;;;;;;5100088;28;19978;-65
2023/01/18 07:43:50;;;;;;;7.88;2.28;;;11.90;77.70;;;;;;5096528;28;20074;-67
2023/01/18 07:46:20;;;;;;;10.32;2.58;;;11.80;77.30;;;;;;5101706;28;20072;-65
2023/01/18 07:48:47;;;;;;;6.70;1.75;;;11.90;77.70;;;;;;5101510;28;20547;-66
2023/01/18 07:51:15;;;;;;;11.15;1.92;;;11.80;77.70;;;;;;5097445;28;20098;-64
2023/01/18 07:53:41;;;;;;;7.97;2.35;;;11.80;77.90;;;;;;5095887;28;20197;-65
2023/01/18 07:56:08;;;;;;;;;;;11.70;78.20;;;;;;5099277;28;20463;-68
2023/01/18 07:58:35;;;;;;;10.23;2.70;;;11.70;78.20;;;;;;5101482;28;19955;-68
2023/01/18 08:01:08;;;;;;;7.55;2.63;;;11.70;78.50;;;;;;5095127;28;20091;-67
2023/01/18 08:03:35;;;;;;;9.43;2.72;;;11.70;78.50;;;;;;5098823;28;20087;-67
2023/01/18 08:06:03;;;;;;;9.05;2.70;;;11.70;78.40;;;;;;5104121;28;20103;-67
2023/01/18 08:08:30;;;;;;;7.43;2.30;;;11.60;78.30;;;;;;5096887;27;20071;-67
2023/01/18 08:10:58;;;;;;;7.78;2.60;;;11.60;78.30;;;;;;5093244;28;20192;-65
2023/01/18 08:13:26;;;;;;;10.50;3.10;;;11.60;78.40;;;;;;5100045;28;20144;-66
2023/01/18 08:15:53;;;;;;;9.88;3.25;;;11.60;78.30;;;;;;5094599;28;20128;-65
2023/01/18 08:18:19;;;;;;;8.57;2.78;;;11.60;78.20;;;;;;5095544;28;20068;-66
2023/01/18 08:20:47;;;;;;;11.73;3.15;;;11.50;78.40;;;;;;5096143;28;20079;-65
2023/01/18 08:23:15;;;;;;;8.43;2.28;;;11.50;78.40;;;;;;5094739;28;20075;-66
2023/01/18 08:25:42;;;;;;;6.90;2.33;;;11.50;78.40;;;;;;5097089;28;20079;-66
2023/01/18 08:28:09;;;;;;;9.45;2.40;;;11.50;78.40;;;;;;5095394;28;20111;-65
2023/01/18 08:30:39;;;;;;;9.02;2.15;;;11.50;78.00;;;;;;5097247;28;20153;-67
2023/01/18 08:33:06;;;;;;;7.30;2.00;;;11.50;77.80;;;;;;5097635;28;20519;-67
2023/01/18 08:35:50;;;;;;;7.32;1.80;;;11.50;77.70;;;;;;5098271;28;20088;-67
2023/01/18 08:38:17;;;;;;;6.25;1.90;;;11.50;77.50;;;;;;5096282;28;20067;-65
2023/01/18 08:40:43;;;;;;;;;;;11.50;77.80;;;;;;5096853;28;20119;-65
2023/01/18 08:43:10;;;;;;;11.02;2.78;;;11.60;77.80;;;;;;5099884;28;19986;-66
2023/01/18 08:45:37;;;;;;;5.60;1.80;;;11.60;77.30;;;;;;5098343;28;20068;-66
2023/01/18 08:48:06;;;;;;;9.15;1.80;;;11.60;77.40;;;;;;5098242;28;20160;-66
2023/01/18 08:50:33;;;;;;;13.88;2.03;;;11.60;77.50;;;;;;5099052;28;20533;-66
2023/01/18 08:53:01;;;;;;;8.77;1.80;;;11.50;77.60;;;;;;5094784;28;20510;-65
2023/01/18 08:55:28;;;;;;;8.02;1.92;;;11.60;77.60;;;;;;5101503;28;20083;-67
2023/01/18 08:57:56;;;;;;;6.32;1.60;;;11.50;77.50;;;;;;5097486;28;20125;-67
2023/01/18 09:00:29;;;;;;;5.82;2.00;;;11.60;77.70;;;;;;5100289;28;20059;-66
2023/01/18 09:02:56;;;;;;;7.55;1.80;;;11.60;77.40;;;;;;5096385;28;20536;-65
2023/01/18 09:05:24;;;;;;;7.70;2.10;;;11.60;77.80;;;;;;5096874;28;20074;-65
2023/01/18 09:07:54;;;;;;;7.38;1.70;;;11.60;77.80;;;;;;5094582;28;20428;-67
2023/01/18 09:10:22;;;;;;;5.05;1.80;;;11.60;77.90;;;;;;5094692;28;20071;-66
2023/01/18 09:12:48;;;;;;;7.97;2.15;;;11.60;78.10;;;;;;5098325;28;20060;-67
2023/01/18 09:15:15;;;;;;;7.93;2.22;;;11.50;77.80;;;;;;5094418;28;20160;-65
2023/01/18 09:17:42;;;;;;;5.85;1.58;;;11.40;77.90;;;;;;5091303;28;20132;-65
2023/01/18 09:20:10;;;;;;;;;;;11.50;78.80;;;;;;5089197;28;20075;-66
2023/01/18 09:22:37;;;;;;;7.30;2.20;;;11.40;78.30;;;;;;5093301;28;19960;-66
2023/01/18 09:25:04;;;;;;;5.97;1.70;;;11.40;78.60;;;;;;5095828;28;20452;-66
2023/01/18 09:27:31;;;;;;;5.25;1.52;;;11.40;78.60;;;;;;5095896;28;20118;-66
2023/01/18 09:29:58;;;;;;;8.55;2.45;;;11.40;78.90;;;;;;5089823;28;20064;-65
2023/01/18 09:32:26;;;;;;;;;;;11.40;79.10;;;;;;5095411;28;20108;-64
2023/01/18 09:34:53;;;;;;;4.95;1.70;;;11.40;79.60;;;;;;5090890;28;20011;-64
2023/01/18 09:37:19;;;;;;;8.38;2.00;;;11.40;79.70;;;;;;5095632;28;20078;-65
2023/01/18 09:39:46;;;;;;;;;;;11.40;80.10;;;;;;5095105;28;20056;-65
2023/01/18 09:42:21;;;;;;;8.48;2.20;;;11.30;80.50;;;;;;5099565;28;20795;-66
2023/01/18 09:44:54;;;;;;;5.88;1.65;;;11.30;81.20;;;;;;5095623;28;20075;-66
2023/01/18 09:47:33;;;;;;;10.27;2.00;;;11.30;81.70;;;;;;5099279;28;20107;-64
2023/01/18 09:50:21;;;;;;;8.77;1.60;;;11.30;81.90;;;;;;5095541;28;20084;-67
2023/01/18 09:52:56;;;;;;;5.97;1.65;;;11.20;82.20;;;;;;5091619;28;20166;-65
2023/01/18 09:55:32;;;;;;;7.63;2.25;;;11.20;82.40;;;;;;5098858;28;20128;-66
2023/01/18 09:58:14;;;;;;;8.07;1.97;;;11.30;82.90;;;;;;5104178;28;21784;-65
2023/01/18 10:00:45;;;;;;;11.32;1.85;;;11.30;83.00;;;;;;5098106;28;20075;-64
2023/01/18 10:03:23;;;;;;;8.68;2.10;;;11.30;83.30;;;;;;5097551;28;20091;-65
2023/01/18 10:06:07;;;;;;;9.88;2.03;;;11.20;83.40;;;;;;5101438;28;20095;-65
2023/01/18 10:08:42;;;;;;;8.77;2.40;;;11.10;83.90;;;;;;5097240;28;20072;-67
2023/01/18 10:11:30;;;;;;;7.40;1.85;;;11.10;84.00;;;;;;5101761;28;20078;-64
2023/01/18 10:14:02;;;;;;;8.38;2.35;;;11.10;84.30;;;;;;5096157;28;20091;-64
2023/01/18 10:16:32;;;;;;;10.52;2.78;;;11.10;84.60;;;;;;5099146;28;20106;-65
2023/01/18 10:19:00;;;;;;;12.57;3.17;;;11.00;84.80;;;;;;5099551;28;20073;-65
2023/01/18 10:21:50;;;;;;;11.80;3.17;;;10.90;85.20;;;;;;5099525;28;20540;-65
2023/01/18 10:24:20;;;;;;;22.27;19.83;;;11.00;85.50;;;;;;5098751;28;20103;-65
2023/01/18 10:26:51;;;;;;;10.73;3.33;;;10.90;85.80;;;;;;5096914;28;20104;-66
2023/01/18 10:29:18;;;;;;;18.38;4.43;;;10.90;85.70;;;;;;5090884;28;20096;-64
2023/01/18 10:32:00;;;;;;;;;;;10.90;86.00;;;;;;5098995;28;20072;-66
2023/01/18 10:34:31;;;;;;;13.63;3.75;;;10.80;86.40;;;;;;5096985;28;20050;-64
2023/01/18 10:37:41;;;;;;;11.80;3.75;;;10.80;86.70;;;;;;5101991;28;20094;-64
2023/01/18 10:40:11;;;;;;;10.65;3.17;;;10.80;86.90;;;;;;5099642;28;20486;-65
2023/01/18 10:42:50;;;;;;;10.52;3.25;;;10.70;87.10;;;;;;5097912;28;20465;-66
2023/01/18 10:45:31;;;;;;;9.40;2.58;;;10.70;87.60;;;;;;5098863;28;20436;-65
2023/01/18 10:48:24;;;;;;;9.88;2.92;;;10.70;87.80;;;;;;5095292;28;20170;-65
2023/01/18 10:50:54;;;;;;;9.75;2.90;;;10.70;87.70;;;;;;5097974;28;20548;-67
2023/01/18 10:53:24;;;;;;;15.85;3.13;;;10.70;87.80;;;;;;5100637;28;20075;-65
2023/01/18 10:56:08;;;;;;;7.75;2.30;;;10.70;88.20;;;;;;5096069;28;20495;-66
2023/01/18 10:58:44;;;;;;;8.30;2.30;;;10.70;88.20;;;;;;5102304;28;20087;-67
2023/01/18 11:01:18;;;;;;;12.73;2.38;;;10.70;88.40;;;;;;5101009;28;20063;-66
2023/01/18 11:03:47;;;;;;;7.65;2.17;;;10.70;88.10;;;;;;5099710;28;20078;-66
2023/01/18 11:06:19;;;;;;;5.60;1.50;;;10.70;88.10;;;;;;5096258;28;20067;-65
2023/01/18 11:08:47;;;;;;;6.03;1.35;;;10.70;87.90;;;;;;5099384;28;20162;-65
2023/01/18 11:14:42;;;;;;;6.20;1.70;;;10.80;88.20;;;;;;5094065;28;20097;-67
2023/01/18 11:17:11;;;;;;;5.43;1.50;;;10.80;87.70;;;;;;5090866;28;20095;-66
2023/01/18 11:19:40;;;;;;;9.23;1.77;;;10.70;87.50;;;;;;5102141;28;20075;-65
2023/01/18 11:22:15;;;;;;;11.15;1.70;;;10.80;87.50;;;;;;5101543;28;20075;-66
2023/01/18 11:24:42;;;;;;;8.30;1.77;;;10.80;87.40;;;;;;5095378;28;20071;-66
2023/01/18 11:27:16;;;;;;;7.03;1.73;;;10.80;87.20;;;;;;5094315;28;20098;-66
2023/01/18 11:29:45;;;;;;;5.68;1.50;;;10.70;87.30;;;;;;5096457;28;20105;-66
2023/01/18 11:32:24;;;;;;;8.32;2.10;;;10.70;87.70;;;;;;5099909;28;20148;-65
2023/01/18 11:34:56;;;;;;;5.75;1.63;;;10.70;88.10;;;;;;5099332;28;20071;-63
2023/01/18 11:37:35;;;;;;;6.85;1.65;;;10.70;88.10;;;;;;5095219;28;20095;-66
2023/01/18 11:40:26;;;;;;;7.90;1.63;;;10.50;88.80;;;;;;5097155;28;20065;-66
2023/01/18 11:43:16;;;;;;;6.82;1.67;;;10.50;89.20;;;;;;5095502;28;20075;-66
2023/01/18 11:45:53;;;;;;;11.65;1.92;;;10.60;89.20;;;;;;5096655;28;20085;-67
2023/01/18 11:48:34;;;;;;;8.30;1.80;;;10.60;89.20;;;;;;5096507;28;20178;-66
2023/01/18 11:51:18;;;;;;;11.07;2.50;;;10.60;89.20;;;;;;5097526;28;20095;-68
2023/01/18 11:54:01;;;;;;;9.00;1.63;;;10.50;89.50;;;;;;5094446;28;20128;-66
2023/01/18 11:56:33;;;;;;;9.23;2.20;;;10.50;90.00;;;;;;5101536;28;20169;-67
2023/01/18 11:59:03;;;;;;;7.22;2.15;;;10.40;90.10;;;;;;5097018;28;20060;-67
2023/01/18 12:01:29;;;;;;;7.45;2.33;;;10.30;90.40;;;;;;5096810;28;20428;-65
2023/01/18 12:04:01;;;;;;;;;;;10.30;90.60;;;;;;5098976;28;20113;-66
2023/01/18 12:06:56;;;;;;;8.15;1.83;;;10.30;90.70;;;;;;5101915;28;19955;-65
2023/01/18 12:09:55;;;;;;;9.60;1.80;;;10.20;90.70;;;;;;5101480;28;20075;-67
2023/01/18 12:12:30;;;;;;;11.68;2.15;;;10.20;90.60;;;;;;5101690;28;20067;-65
2023/01/18 12:15:03;;;;;;;6.78;1.85;;;10.10;90.80;;;;;;5094113;28;20601;-67
2023/01/18 12:18:11;;;;;;;9.80;2.13;;;10.10;90.70;;;;;;5093000;28;20111;-67
2023/01/18 12:20:57;;;;;;;8.15;2.10;;;10.20;90.70;;;;;;5095249;28;20099;-65
2023/01/18 12:23:30;;;;;;;7.97;2.00;;;10.30;90.50;;;;;;5096305;28;20077;-65
2023/01/18 12:26:19;;;;;;;8.45;2.03;;;10.20;90.30;;;;;;5097710;28;20079;-67
2023/01/18 12:29:03;;;;;;;6.75;1.90;;;10.30;90.30;;;;;;5094392;28;20110;-66
2023/01/18 12:32:16;;;;;;;8.45;2.10;;;11.00;90.50;;;;;;5097523;28;20072;-66
2023/01/18 12:35:13;;;;;;;9.25;2.58;;;10.20;90.40;;;;;;5088659;28;20118;-67
2023/01/18 12:37:42;;;;;;;10.48;2.97;;;10.10;90.60;;;;;;5098611;28;20099;-66
2023/01/18 12:40:27;;;;;;;10.35;2.55;;;10.10;90.80;;;;;;5089006;28;20082;-65
2023/01/18 12:43:20;;;;;;;9.80;2.22;;;10.00;90.90;;;;;;5098626;28;20166;-65
2023/01/18 12:46:04;;;;;;;6.80;1.88;;;10.00;91.10;;;;;;5100190;28;20525;-67
2023/01/18 12:48:41;;;;;;;11.32;1.90;;;10.00;91.10;;;;;;5098314;28;20099;-65
2023/01/18 12:51:15;;;;;;;9.95;1.60;;;10.10;91.00;;;;;;5095031;28;20170;-67
2023/01/18 12:53:52;;;;;;;6.95;2.13;;;10.10;91.00;;;;;;5098422;28;20124;-65
2023/01/18 12:56:34;;;;;;;11.82;1.88;;;10.10;91.00;;;;;;5100352;27;20083;-65
2023/01/18 12:59:05;;;;;;;9.63;2.10;;;10.00;90.80;;;;;;5093368;28;20068;-66
2023/01/18 13:01:41;;;;;;;7.68;1.63;;;10.10;91.10;;;;;;5097348;28;20071;-66
2023/01/18 13:04:34;;;;;;;8.63;1.83;;;10.10;91.20;;;;;;5093469;28;20070;-67
2023/01/18 13:07:06;;;;;;;7.43;2.13;;;10.00;91.20;;;;;;5089139;28;20347;-66
2023/01/18 13:09:39;;;;;;;12.00;1.92;;;9.90;91.40;;;;;;5094442;28;20102;-66
2023/01/18 13:12:07;;;;;;;9.13;1.85;;;10.00;91.70;;;;;;5096479;28;20130;-65
2023/01/18 13:14:54;;;;;;;12.30;1.95;;;10.00;91.50;;;;;;5096310;28;20160;-64
2023/01/18 13:17:29;;;;;;;8.65;1.88;;;10.00;91.50;;;;;;5097773;28;20452;-65
2023/01/18 13:20:03;;;;;;;5.70;1.38;;;10.10;91.50;;;;;;5091326;28;20078;-66
2023/01/18 13:22:48;;;;;;;7.03;1.77;;;10.10;91.50;;;;;;5098632;28;20066;-65
2023/01/18 13:25:35;;;;;;;8.20;1.77;;;10.10;91.30;;;;;;5098556;28;20205;-66
2023/01/18 13:28:19;;;;;;;6.47;1.70;;;10.20;91.20;;;;;;5093193;28;20100;-65
2023/01/18 13:30:59;;;;;;;7.72;1.45;;;10.20;91.30;;;;;;5097651;28;20551;-65
2023/01/18 13:33:28;;;;;;;4.75;1.42;;;10.20;91.00;;;;;;5097962;28;20490;-66
2023/01/18 13:36:08;;;;;;;7.90;1.40;;;10.20;90.90;;;;;;5092844;28;20095;-65
2023/01/18 13:38:48;;;;;;;8.63;1.88;;;10.20;90.70;;;;;;5097159;28;20117;-64
2023/01/18 13:41:20;;;;;;;8.88;1.80;;;10.20;90.60;;;;;;5095338;28;20078;-65
2023/01/18 13:43:46;;;;;;;7.55;1.85;;;10.30;90.60;;;;;;5094324;28;20425;-65
2023/01/18 13:46:23;;;;;;;;;;;10.20;90.60;;;;;;5099246;28;20604;-68
2023/01/18 13:48:53;;;;;;;7.00;2.03;;;10.20;90.60;;;;;;5095043;28;20339;-67
2023/01/18 13:51:40;;;;;;;8.80;1.92;;;10.20;90.80;;;;;;5093701;28;20095;-66